Sturgeon Bay, WI

3:23 PM CDT on August 20, 2014 (GMT -0500)
Manitowoc County | Change Station
CLOSE
Current Station
Airport
Location: Manitowoc,
Elevation: 650 ft
Nearby Weather Stations

Elev 650 ft 44.13 °N, 87.68 °W | Updated 27 minutes ago

Mostly Cloudy
Mostly Cloudy
74 °F
Feels Like 74 °F
N
4
Wind Variable Wind from Variable

Today
High -- | Low -- °F
--% Chance of Precip.
Yesterday
High -- | Low -- °F
Precip. -- in
5:57 AM 7:47 PM
Waning Crescent, 19% visible
Pressure 29.94 in
Visibility 8.0 miles
Clouds Mostly Cloudy 3500 ft
Dew Point 63 °F
Humidity 68%
Rainfall 0.00 in
Snow Depth Not available.
UV 4 out of 12
Pollen 9.10 out of 12
Air Quality Not available.
Flu Activity Not available.
METAR KMTW 201956Z AUTO VRB03KT 8SM BKN035 23/17 A2989 RMK AO2 SLP136 T02330172

More Conditions Fewer Conditions

Pressure 29.94 in
Visibility 8.0 miles
Clouds Mostly Cloudy 3500 ft
Dew Point 63 °F
Humidity 68%
Rainfall 0.00 in
Snow Depth Not available.
UV 4 out of 12
Pollen 9.10 out of 12
Air Quality Not available.
Flu Activity Not available.
METAR KMTW 201956Z AUTO VRB03KT 8SM BKN035 23/17 A2989 RMK AO2 SLP136 T02330172

More Conditions Fewer Conditions

10-Day Weather Forecast

Almanac

Astronomy

Aug. 20, 2014 Rise Set
Actual Time 5:57 AM CDT 7:47 PM CDT
Civil Twilight 5:26 AM CDT 8:18 PM CDT
Nautical Twilight 4:47 AM CDT 8:56 PM CDT
Astronomical Twilight 4:06 AM CDT 9:38 PM CDT
Moon 1:32 AM CDT 4:36 PM CDT
Length of Visible Light 14h 52m
Length of Day
13h 49m
Tomorrow will be 2m 52s shorter.
Waning Crescent, 19% of the Moon is Illuminated
Today
Waning Crescent
Aug 25
New
Sep 2
First Quarter
Sep 8
Full
Sep 15
Last Quarter

Today's Extremes

State Highs State Lows

Community

WunderPhotos

Upload Photos

1,745,750 photos uploaded!

WunderBlogs® & News

By Dr. Jeff Masters
Director of Meteorology, Weather Underground
By Kari Strenfel
Meteorologist, Weather Underground
By Christopher C. Burt
Weather Historian, Weather Underground
August 20, 2014
August 20, 2014
August 20, 2014

Nearby

Snow Depth

Station Depth Elevation
No new snow has been reported.

Earthquake Activity

City Distance Mag. Time & Date
No recent earthquake activity has been reported nearby.
Minimum magnitude displayed is 2.5.

Coastal Water Temperatures

Place Temperature
No Stations Reporting

Nearby Weather Stations